createdAt,value
2023-05-05T00:01:25.827Z,101291.88
2023-05-05T00:03:52.614Z,101283.44
2023-05-05T00:06:19.537Z,101284.88
2023-05-05T00:08:49.319Z,101294.19
2023-05-05T00:11:16.037Z,101293.56
2023-05-05T00:13:42.768Z,101293.78
2023-05-05T00:16:09.460Z,101293.38
2023-05-05T00:18:37.540Z,101290.06
2023-05-05T00:21:04.561Z,101286.78
2023-05-05T00:23:31.286Z,101285.34
2023-05-05T00:25:57.914Z,101289.25
2023-05-05T00:28:24.540Z,101285.97
2023-05-05T00:30:51.233Z,101291.31
2023-05-05T00:33:17.898Z,101292.97
2023-05-05T00:35:45.927Z,101296.69
2023-05-05T00:38:12.636Z,101290.50
2023-05-05T00:40:39.474Z,101297.72
2023-05-05T00:43:07.733Z,101304.13
2023-05-05T00:45:37.005Z,101292.78
2023-05-05T00:48:04.348Z,101295.03
2023-05-05T00:50:32.312Z,101287.44
2023-05-05T00:53:02.547Z,101288.88
2023-05-05T00:55:29.908Z,101289.31
2023-05-05T00:57:57.885Z,101295.69
2023-05-05T01:00:24.839Z,101293.22
2023-05-05T01:02:52.593Z,101296.09
2023-05-05T01:05:21.606Z,101304.97
2023-05-05T01:08:02.984Z,101299.59
2023-05-05T01:10:38.201Z,101299.59
2023-05-05T01:13:16.667Z,101295.88
2023-05-05T01:15:48.577Z,101306.59
2023-05-05T01:18:25.566Z,101296.91
2023-05-05T01:21:01.703Z,101303.31
2023-05-05T01:23:47.588Z,101305.97
2023-05-05T01:26:40.826Z,101307.03
2023-05-05T01:29:27.512Z,101303.72
2023-05-05T01:31:59.838Z,101311.78
2023-05-05T01:34:31.356Z,101318.16
2023-05-05T01:37:04.700Z,101324.56
2023-05-05T01:39:34.972Z,101329.28
2023-05-05T01:42:08.187Z,101321.47
2023-05-05T01:44:37.326Z,101315.06
2023-05-05T01:47:06.833Z,101321.03
2023-05-05T01:49:34.918Z,101332.59
2023-05-05T01:52:03.760Z,101337.75
2023-05-05T01:54:33.568Z,101332.38
2023-05-05T01:57:05.117Z,101334.88
2023-05-05T01:59:33.331Z,101330.34
2023-05-05T02:02:02.832Z,101341.66
2023-05-05T02:04:33.493Z,101337.94
2023-05-05T02:07:03.203Z,101346.63
2023-05-05T02:09:31.557Z,101340.03
2023-05-05T02:11:59.390Z,101338.97
2023-05-05T02:14:28.745Z,101346.00
2023-05-05T02:16:56.997Z,101342.09
2023-05-05T02:19:28.584Z,101344.34
2023-05-05T02:21:58.171Z,101341.44
2023-05-05T02:24:25.144Z,101334.22
2023-05-05T02:26:53.029Z,101338.38
2023-05-05T02:29:22.586Z,101326.81
2023-05-05T02:31:53.220Z,101321.44
2023-05-05T02:34:24.118Z,101320.63
2023-05-05T02:36:53.484Z,101304.53
2023-05-05T02:39:28.028Z,101316.09
2023-05-05T02:41:58.081Z,101318.16
2023-05-05T02:44:28.155Z,101315.66
2023-05-05T02:46:55.348Z,101328.47
2023-05-05T02:49:22.452Z,101329.50
2023-05-05T02:51:49.298Z,101322.69
2023-05-05T02:54:16.186Z,101334.66
2023-05-05T02:56:51.056Z,101339.41
2023-05-05T02:59:27.302Z,101337.13
2023-05-05T03:02:03.281Z,101332.38
2023-05-05T03:04:38.578Z,101338.97
2023-05-05T03:07:13.557Z,101334.88
2023-05-05T03:09:47.696Z,101336.09
2023-05-05T03:12:20.193Z,101325.19
2023-05-05T03:14:54.187Z,101332.59
2023-05-05T03:17:22.732Z,101340.00
2023-05-05T03:19:50.427Z,101336.72
2023-05-05T03:22:17.200Z,101337.94
2023-05-05T03:24:49.988Z,101350.88
2023-05-05T03:27:18.255Z,101348.63
2023-05-05T03:29:44.988Z,101358.91
2023-05-05T03:32:11.759Z,101347.78
2023-05-05T03:34:38.645Z,101352.72
2023-05-05T03:37:05.362Z,101352.50
2023-05-05T03:39:32.776Z,101348.38
2023-05-05T03:41:59.494Z,101352.69
2023-05-05T03:44:28.007Z,101347.94
2023-05-05T03:46:54.873Z,101356.16
2023-05-05T03:49:21.586Z,101350.97
2023-05-05T03:51:48.684Z,101355.47
2023-05-05T03:54:15.632Z,101356.28
2023-05-05T03:56:44.169Z,101369.22
2023-05-05T03:59:10.937Z,101378.50
2023-05-05T04:01:39.402Z,101382.56
2023-05-05T04:04:06.201Z,101400.72
2023-05-05T04:06:32.977Z,101397.78
2023-05-05T04:08:59.728Z,101394.03
2023-05-05T04:11:26.510Z,101401.66
2023-05-05T04:13:53.169Z,101408.03
2023-05-05T04:16:20.100Z,101412.38
2023-05-05T04:18:48.276Z,101411.31
2023-05-05T04:21:15.001Z,101407.84
2023-05-05T04:23:41.701Z,101412.38
2023-05-05T04:26:08.364Z,101422.44
2023-05-05T04:28:35.738Z,101423.44
2023-05-05T04:31:05.358Z,101418.09
2023-05-05T04:33:32.453Z,101429.63
2023-05-05T04:36:00.543Z,101418.09
2023-05-05T04:38:28.321Z,101428.97
2023-05-05T04:40:55.001Z,101437.19
2023-05-05T04:43:21.660Z,101435.56
2023-05-05T04:45:57.108Z,101442.13
2023-05-05T04:48:23.895Z,101452.00
2023-05-05T04:50:51.356Z,101449.50
2023-05-05T04:53:19.364Z,101454.03
2023-05-05T04:55:46.057Z,101454.03
2023-05-05T04:58:12.646Z,101443.34
2023-05-05T05:00:39.517Z,101450.34
2023-05-05T05:03:06.472Z,101460.03
2023-05-05T05:05:33.402Z,101457.34
2023-05-05T05:08:00.217Z,101455.50
2023-05-05T05:10:28.927Z,101448.31
2023-05-05T05:12:55.658Z,101457.81
2023-05-05T05:15:22.541Z,101460.47
2023-05-05T05:17:49.192Z,101459.44
2023-05-05T05:20:17.377Z,101467.25
2023-05-05T05:22:44.047Z,101467.25
2023-05-05T05:25:11.061Z,101461.91
2023-05-05T05:27:39.082Z,101471.59
2023-05-05T05:30:07.211Z,101472.25
2023-05-05T05:32:34.178Z,101472.66
2023-05-05T05:35:04.229Z,101477.00
2023-05-05T05:37:33.651Z,101470.63
2023-05-05T05:40:00.360Z,101473.13
2023-05-05T05:42:27.250Z,101470.44
2023-05-05T05:44:55.357Z,101467.34
2023-05-05T05:47:22.162Z,101483.03
2023-05-05T05:49:51.174Z,101474.81
2023-05-05T05:52:17.836Z,101478.09
2023-05-05T05:54:46.570Z,101482.06
2023-05-05T05:57:13.193Z,101472.00
2023-05-05T05:59:40.267Z,101480.44
2023-05-05T06:02:09.710Z,101466.88
2023-05-05T06:04:36.577Z,101473.66
2023-05-05T06:07:03.340Z,101473.28
2023-05-05T06:09:29.997Z,101481.53
2023-05-05T06:11:56.648Z,101475.59
2023-05-05T06:14:23.512Z,101482.00
2023-05-05T06:16:50.913Z,101483.06
2023-05-05T06:19:18.920Z,101483.53
2023-05-05T06:21:45.679Z,101479.66
2023-05-05T06:24:12.710Z,101488.84
2023-05-05T06:26:40.518Z,101483.16
2023-05-05T06:29:07.225Z,101488.34
2023-05-05T06:31:34.130Z,101500.50
2023-05-05T06:34:00.860Z,101491.66
2023-05-05T06:36:28.856Z,101491.88
2023-05-05T06:38:55.639Z,101493.13
2023-05-05T06:41:22.851Z,101501.78
2023-05-05T06:43:52.134Z,101487.75
2023-05-05T06:46:19.062Z,101489.59
2023-05-05T06:48:46.050Z,101491.44
2023-05-05T06:51:12.835Z,101497.00
2023-05-05T06:53:42.259Z,101501.97
2023-05-05T06:56:08.972Z,101503.19
2023-05-05T06:58:36.620Z,101500.31
2023-05-05T07:01:05.247Z,101502.16
2023-05-05T07:03:31.995Z,101513.72
2023-05-05T07:05:58.791Z,101512.69
2023-05-05T07:08:25.668Z,101517.88
2023-05-05T07:10:54.263Z,101523.25
2023-05-05T07:13:21.082Z,101525.94
2023-05-05T07:15:48.628Z,101529.44
2023-05-05T07:18:16.420Z,101537.69
2023-05-05T07:20:43.973Z,101535.00
2023-05-05T07:23:11.864Z,101545.56
2023-05-05T07:25:38.957Z,101542.63
2023-05-05T07:28:07.032Z,101541.59
2023-05-05T07:30:33.695Z,101543.25
2023-05-05T07:33:00.463Z,101533.13
2023-05-05T07:35:29.006Z,101537.25
2023-05-05T07:37:58.138Z,101536.22
2023-05-05T07:40:28.102Z,101546.34
2023-05-05T07:42:55.055Z,101546.53
2023-05-05T07:45:23.062Z,101546.13
2023-05-05T07:47:51.290Z,101543.00
2023-05-05T07:50:18.515Z,101541.34
2023-05-05T07:52:49.938Z,101537.22
2023-05-05T07:55:18.860Z,101539.25
2023-05-05T07:57:47.448Z,101540.50
2023-05-05T08:00:15.280Z,101536.34
2023-05-05T08:02:44.116Z,101532.41
2023-05-05T08:05:11.659Z,101533.00
2023-05-05T08:07:41.751Z,101524.72
2023-05-05T08:10:10.166Z,101532.38
2023-05-05T08:12:37.192Z,101530.06
2023-05-05T08:15:05.176Z,101531.09
2023-05-05T08:17:46.137Z,101537.72
2023-05-05T08:20:13.233Z,101541.03
2023-05-05T08:22:42.506Z,101542.44
2023-05-05T08:25:11.183Z,101542.25
2023-05-05T08:27:38.287Z,101543.69
2023-05-05T08:30:06.351Z,101538.69
2023-05-05T08:32:36.370Z,101539.09
2023-05-05T08:35:06.572Z,101531.41
2023-05-05T08:37:34.029Z,101534.28
2023-05-05T08:40:00.955Z,101534.47
2023-05-05T08:42:37.073Z,101536.50
2023-05-05T08:45:06.413Z,101545.34
2023-05-05T08:47:34.379Z,101546.97
2023-05-05T08:50:03.080Z,101542.56
2023-05-05T08:52:40.255Z,101553.09
2023-05-05T08:55:14.814Z,101553.88
2023-05-05T08:57:46.231Z,101550.50
2023-05-05T09:00:13.716Z,101542.63
2023-05-05T09:02:42.891Z,101544.22
2023-05-05T09:05:12.403Z,101541.50
2023-05-05T09:07:41.516Z,101538.75
2023-05-05T09:10:09.850Z,101542.66
2023-05-05T09:12:40.278Z,101544.69
2023-05-05T09:15:09.195Z,101547.75
2023-05-05T09:17:36.953Z,101545.47
2023-05-05T09:20:07.173Z,101553.69
2023-05-05T09:22:36.745Z,101544.94
2023-05-05T09:25:06.160Z,101563.16
2023-05-05T09:27:36.650Z,101556.88
2023-05-05T09:30:04.241Z,101551.63
2023-05-05T09:32:31.584Z,101549.91
2023-05-05T09:34:59.570Z,101550.66
2023-05-05T09:37:28.110Z,101552.22
2023-05-05T09:39:55.548Z,101552.38
2023-05-05T09:42:23.593Z,101557.94
2023-05-05T09:44:51.520Z,101557.25
2023-05-05T09:47:29.053Z,101553.91
2023-05-05T09:49:58.704Z,101545.97
2023-05-05T09:52:25.524Z,101550.09
2023-05-05T09:54:57.129Z,101548.00
2023-05-05T09:57:30.350Z,101549.19
2023-05-05T09:59:58.877Z,101542.28
2023-05-05T10:02:33.196Z,101538.91
2023-05-05T10:05:11.466Z,101543.84
2023-05-05T10:07:39.526Z,101539.88
2023-05-05T10:10:10.299Z,101537.53
2023-05-05T10:12:39.011Z,101527.94
2023-05-05T10:15:10.211Z,101531.00
2023-05-05T10:17:37.538Z,101522.69
2023-05-05T10:20:08.905Z,101527.03
2023-05-05T10:22:35.804Z,101535.13
2023-05-05T10:25:04.144Z,101525.75
2023-05-05T10:27:42.209Z,101520.56
2023-05-05T10:30:15.938Z,101522.81
2023-05-05T10:33:00.583Z,101517.44
2023-05-05T10:35:35.723Z,101517.19
2023-05-05T10:38:08.281Z,101516.16
2023-05-05T10:40:35.662Z,101514.03
2023-05-05T10:43:04.838Z,101508.19
2023-05-05T10:45:32.302Z,101509.59
2023-05-05T10:48:01.585Z,101509.97
2023-05-05T10:50:33.262Z,101503.28
2023-05-05T10:53:11.081Z,101505.75
2023-05-05T10:55:42.024Z,101493.06
2023-05-05T10:58:46.925Z,101495.75
2023-05-05T11:01:29.857Z,101496.59
2023-05-05T11:04:19.229Z,101499.88
2023-05-05T11:07:23.884Z,101499.06
2023-05-05T11:09:55.728Z,101507.16
2023-05-05T11:12:23.851Z,101504.47
2023-05-05T11:15:23.820Z,101505.75
2023-05-05T11:17:52.616Z,101496.69
2023-05-05T11:20:54.292Z,101500.69
2023-05-05T11:23:25.815Z,101502.19
2023-05-05T11:25:52.662Z,101499.38
2023-05-05T11:28:21.422Z,101498.25
2023-05-05T11:31:16.677Z,101490.03
2023-05-05T11:33:43.523Z,101498.81
2023-05-05T11:36:14.331Z,101500.91
2023-05-05T11:39:02.042Z,101536.22
2023-05-05T11:42:10.057Z,101563.56
2023-05-05T11:44:37.773Z,101567.50
2023-05-05T11:47:31.536Z,101556.44
2023-05-05T11:49:58.686Z,101565.41
2023-05-05T11:52:27.128Z,101555.25
2023-05-05T11:55:01.498Z,101567.03
2023-05-05T11:57:29.687Z,101571.66
2023-05-05T11:59:59.598Z,101585.13
2023-05-05T12:02:29.895Z,101584.56
2023-05-05T12:04:57.935Z,101584.38
2023-05-05T12:07:26.428Z,101590.16
2023-05-05T12:09:57.724Z,101582.31
2023-05-05T12:12:34.904Z,101574.44
2023-05-05T12:15:01.937Z,101583.94
2023-05-05T12:17:40.112Z,101585.97
2023-05-05T12:20:09.026Z,101589.25
2023-05-05T12:22:36.123Z,101592.91
2023-05-05T12:25:05.720Z,101604.19
2023-05-05T12:27:32.923Z,101611.00
2023-05-05T12:30:11.761Z,101618.84
2023-05-05T12:32:38.513Z,101627.28
2023-05-05T12:35:08.062Z,101626.63
2023-05-05T12:37:35.558Z,101624.38
2023-05-05T12:40:06.683Z,101634.06
2023-05-05T12:42:38.215Z,101634.06
2023-05-05T12:45:07.176Z,101634.88
2023-05-05T12:47:36.796Z,101631.59
2023-05-05T12:50:05.181Z,101620.19
2023-05-05T12:52:49.777Z,101611.50
2023-05-05T12:55:19.764Z,101606.06
2023-05-05T12:58:00.836Z,101609.13
2023-05-05T13:00:29.232Z,101605.91
2023-05-05T13:02:56.973Z,101603.38
2023-05-05T13:05:31.652Z,101606.03
2023-05-05T13:07:58.680Z,101600.44
2023-05-05T13:10:28.068Z,101602.25
2023-05-05T13:12:56.733Z,101603.25
2023-05-05T13:15:25.882Z,101598.66
2023-05-05T13:17:59.125Z,101589.75
2023-05-05T13:20:25.773Z,101588.06
2023-05-05T13:22:52.657Z,101589.06
2023-05-05T13:25:19.299Z,101588.84
2023-05-05T13:27:47.379Z,101599.94
2023-05-05T13:30:14.819Z,101601.59
2023-05-05T13:32:42.216Z,101615.22
2023-05-05T13:35:09.419Z,101609.44
2023-05-05T13:37:36.434Z,101610.88
2023-05-05T13:40:03.792Z,101603.91
2023-05-05T13:42:30.391Z,101603.91
2023-05-05T13:44:58.385Z,101605.56
2023-05-05T13:47:25.504Z,101595.31
2023-05-05T13:49:52.223Z,101597.97
2023-05-05T13:52:18.884Z,101593.47
2023-05-05T13:54:45.931Z,101598.22
2023-05-05T13:57:12.615Z,101594.75
2023-05-05T13:59:39.440Z,101593.72
2023-05-05T14:02:07.744Z,101594.56
2023-05-05T14:04:34.552Z,101593.53
2023-05-05T14:07:01.526Z,101591.69
2023-05-05T14:09:28.370Z,101589.66
2023-05-05T14:11:55.093Z,101586.16
2023-05-05T14:14:23.925Z,101588.84
2023-05-05T14:16:51.001Z,101576.72
2023-05-05T14:19:19.060Z,101582.25
2023-05-05T14:21:46.029Z,101585.97
2023-05-05T14:24:12.665Z,101593.22
2023-05-05T14:26:39.405Z,101594.09
2023-05-05T14:29:06.276Z,101606.53
2023-05-05T14:31:33.455Z,101605.31
2023-05-05T14:34:00.210Z,101600.19
2023-05-05T14:36:28.168Z,101599.41
2023-05-05T14:38:54.942Z,101600.81
2023-05-05T14:41:21.712Z,101604.53
2023-05-05T14:43:48.413Z,101601.06
2023-05-05T14:46:15.450Z,101594.63
2023-05-05T14:48:42.341Z,101588.69
2023-05-05T14:51:09.018Z,101582.09
2023-05-05T14:53:37.165Z,101584.34
2023-05-05T14:56:04.035Z,101580.47
2023-05-05T14:58:31.159Z,101578.19
2023-05-05T15:00:58.098Z,101572.84
2023-05-05T15:03:24.953Z,101569.34
2023-05-05T15:05:52.194Z,101562.13
2023-05-05T15:08:19.875Z,101561.94
2023-05-05T15:10:48.363Z,101556.97
2023-05-05T15:13:15.414Z,101552.69
2023-05-05T15:15:42.319Z,101556.63
2023-05-05T15:18:09.173Z,101554.97
2023-05-05T15:20:37.230Z,101540.34
2023-05-05T15:23:04.232Z,101530.00
2023-05-05T15:25:31.004Z,101534.97
2023-05-05T15:28:00.829Z,101524.03
2023-05-05T15:30:27.977Z,101530.00
2023-05-05T15:32:55.018Z,101530.44
2023-05-05T15:35:21.699Z,101538.28
2023-05-05T15:37:48.428Z,101553.78
2023-05-05T15:40:15.294Z,101547.38
2023-05-05T15:42:41.976Z,101544.50
2023-05-05T15:45:14.934Z,101544.09
2023-05-05T15:47:42.251Z,101536.47
2023-05-05T15:50:09.628Z,101537.31
2023-05-05T15:52:36.288Z,101527.38
2023-05-05T15:55:03.505Z,101525.72
2023-05-05T15:57:30.363Z,101517.06
2023-05-05T15:59:57.030Z,101521.59
2023-05-05T16:02:26.536Z,101523.44
2023-05-05T16:04:53.585Z,101526.94
2023-05-05T16:07:20.293Z,101514.72
2023-05-05T16:09:46.967Z,101518.47
2023-05-05T16:12:13.666Z,101526.69
2023-05-05T16:14:40.810Z,101519.47
2023-05-05T16:17:09.012Z,101520.72
2023-05-05T16:19:37.109Z,101518.66
2023-05-05T16:22:03.847Z,101516.13
2023-05-05T16:24:30.670Z,101520.31
2023-05-05T16:26:57.436Z,101518.66
2023-05-05T16:29:24.174Z,101507.06
2023-05-05T16:31:50.860Z,101512.84
2023-05-05T16:34:17.598Z,101513.66
2023-05-05T16:36:48.441Z,101515.31
2023-05-05T16:39:15.200Z,101510.56
2023-05-05T16:41:41.848Z,101507.03
2023-05-05T16:44:09.874Z,101504.56
2023-05-05T16:46:37.464Z,101504.56
2023-05-05T16:49:04.409Z,101498.38
2023-05-05T16:51:31.550Z,101493.00
2023-05-05T16:53:59.640Z,101501.69
2023-05-05T16:56:26.479Z,101500.66
2023-05-05T16:58:53.334Z,101502.28
2023-05-05T17:01:20.094Z,101496.69
2023-05-05T17:03:46.866Z,101500.19
2023-05-05T17:06:13.606Z,101492.13
2023-05-05T17:08:40.552Z,101496.47
2023-05-05T17:11:10.937Z,101503.94
2023-05-05T17:13:38.446Z,101509.94
2023-05-05T17:16:05.734Z,101501.06
2023-05-05T17:18:32.517Z,101494.66
2023-05-05T17:20:59.266Z,101499.19
2023-05-05T17:23:25.994Z,101504.78
2023-05-05T17:25:54.150Z,101513.06
2023-05-05T17:28:22.454Z,101507.91
2023-05-05T17:30:49.316Z,101521.75
2023-05-05T17:33:21.392Z,101517.41
2023-05-05T17:35:48.362Z,101514.53
2023-05-05T17:38:15.570Z,101507.50
2023-05-05T17:40:42.308Z,101501.53
2023-05-05T17:43:09.044Z,101509.16
2023-05-05T17:45:37.337Z,101505.03
2023-05-05T17:48:04.492Z,101509.19
2023-05-05T17:50:31.240Z,101510.66
2023-05-05T17:52:58.078Z,101514.56
2023-05-05T17:55:24.806Z,101521.19
2023-05-05T17:57:53.784Z,101524.88
2023-05-05T18:00:21.934Z,101523.47
2023-05-05T18:02:50.452Z,101521.81
2023-05-05T18:05:17.350Z,101524.91
2023-05-05T18:07:44.065Z,101525.34
2023-05-05T18:10:11.147Z,101528.63
2023-05-05T18:12:38.002Z,101545.38
2023-05-05T18:15:05.800Z,101543.91
2023-05-05T18:17:32.519Z,101539.59
2023-05-05T18:20:00.724Z,101542.28
2023-05-05T18:22:27.476Z,101533.78
2023-05-05T18:24:59.028Z,101536.06
2023-05-05T18:27:26.688Z,101529.22
2023-05-05T18:29:53.408Z,101541.19
2023-05-05T18:32:20.397Z,101543.28
2023-05-05T18:34:47.104Z,101542.66
2023-05-05T18:37:15.363Z,101543.69
2023-05-05T18:39:43.918Z,101539.34
2023-05-05T18:42:12.825Z,101542.44
2023-05-05T18:44:39.724Z,101544.69
2023-05-05T18:47:06.976Z,101548.59
2023-05-05T18:49:34.154Z,101552.34
2023-05-05T18:52:00.925Z,101544.69
2023-05-05T18:54:29.014Z,101547.78
2023-05-05T18:56:56.066Z,101555.41
2023-05-05T18:59:22.739Z,101556.03
2023-05-05T19:01:49.509Z,101552.94
2023-05-05T19:04:30.190Z,101556.22
2023-05-05T19:06:58.037Z,101549.78
2023-05-05T19:09:24.804Z,101552.91
2023-05-05T19:11:52.960Z,101560.50
2023-05-05T19:14:19.763Z,101557.41
2023-05-05T19:16:47.198Z,101558.63
2023-05-05T19:19:13.999Z,101564.41
2023-05-05T19:21:40.989Z,101564.81
2023-05-05T19:24:08.786Z,101574.28
2023-05-05T19:26:35.783Z,101587.06
2023-05-05T19:29:03.939Z,101582.09
2023-05-05T19:31:31.461Z,101581.03
2023-05-05T19:34:00.564Z,101582.47
2023-05-05T19:36:27.807Z,101579.56
2023-05-05T19:38:55.338Z,101583.88
2023-05-05T19:41:22.044Z,101581.94
2023-05-05T19:43:49.952Z,101584.59
2023-05-05T19:46:19.848Z,101588.47
2023-05-05T19:48:46.559Z,101587.25
2023-05-05T19:51:13.452Z,101588.03
2023-05-05T19:53:42.985Z,101587.78
2023-05-05T19:56:10.169Z,101593.72
2023-05-05T19:58:55.192Z,101596.19
2023-05-05T20:01:23.813Z,101593.25
2023-05-05T20:03:51.306Z,101593.19
2023-05-05T20:06:18.086Z,101584.94
2023-05-05T20:08:47.799Z,101596.03
2023-05-05T20:11:16.141Z,101587.56
2023-05-05T20:13:43.175Z,101591.84
2023-05-05T20:16:10.426Z,101596.97
2023-05-05T20:18:38.835Z,101594.22
2023-05-05T20:21:05.973Z,101592.94
2023-05-05T20:23:32.754Z,101601.56
2023-05-05T20:25:59.451Z,101592.25
2023-05-05T20:28:26.138Z,101589.31
2023-05-05T20:30:52.831Z,101588.06
2023-05-05T20:33:20.138Z,101597.28
2023-05-05T20:35:48.408Z,101592.53
2023-05-05T20:38:15.114Z,101592.25
2023-05-05T20:40:42.163Z,101601.69
2023-05-05T20:43:08.931Z,101601.41
2023-05-05T20:45:35.791Z,101598.47
2023-05-05T20:48:03.670Z,101597.19
2023-05-05T20:50:30.407Z,101603.75
2023-05-05T20:52:58.980Z,101605.78
2023-05-05T20:55:26.035Z,101605.31
2023-05-05T20:57:52.740Z,101604.50
2023-05-05T21:00:19.491Z,101607.56
2023-05-05T21:02:46.490Z,101600.09
2023-05-05T21:05:14.113Z,101594.50
2023-05-05T21:07:40.847Z,101598.19
2023-05-05T21:10:10.186Z,101591.56
2023-05-05T21:12:37.550Z,101589.25
2023-05-05T21:15:05.067Z,101592.28
2023-05-05T21:17:33.704Z,101592.50
2023-05-05T21:20:00.523Z,101595.72
2023-05-05T21:22:27.226Z,101589.94
2023-05-05T21:24:54.333Z,101591.13
2023-05-05T21:27:22.448Z,101589.84
2023-05-05T21:29:50.773Z,101590.41
2023-05-05T21:32:17.618Z,101590.59
2023-05-05T21:34:44.317Z,101588.47
2023-05-05T21:37:12.098Z,101589.69
2023-05-05T21:39:38.834Z,101595.38
2023-05-05T21:42:05.601Z,101599.91
2023-05-05T21:44:34.061Z,101598.25
2023-05-05T21:47:00.944Z,101597.63
2023-05-05T21:49:27.748Z,101600.28
2023-05-05T21:51:54.480Z,101596.97
2023-05-05T21:54:21.195Z,101598.97
2023-05-05T21:56:48.117Z,101592.38
2023-05-05T21:59:17.072Z,101586.56
2023-05-05T22:01:45.744Z,101581.78
2023-05-05T22:04:12.544Z,101584.81
2023-05-05T22:06:39.248Z,101584.34
2023-05-05T22:09:06.036Z,101573.38
2023-05-05T22:11:32.911Z,101574.41
2023-05-05T22:13:59.690Z,101576.44
2023-05-05T22:16:26.647Z,101580.09
2023-05-05T22:18:54.819Z,101583.63
2023-05-05T22:21:21.966Z,101589.78
2023-05-05T22:23:48.732Z,101583.78
2023-05-05T22:26:15.431Z,101585.00
2023-05-05T22:28:42.124Z,101595.84
2023-05-05T22:31:08.832Z,101586.19
2023-05-05T22:33:36.235Z,101587.38
2023-05-05T22:36:04.822Z,101592.53
2023-05-05T22:38:31.518Z,101592.53
2023-05-05T22:40:59.338Z,101593.53
2023-05-05T22:43:26.005Z,101594.53
2023-05-05T22:45:53.653Z,101593.72
2023-05-05T22:48:21.610Z,101596.75
2023-05-05T22:50:48.327Z,101589.59
2023-05-05T22:53:16.474Z,101590.56
2023-05-05T22:55:43.291Z,101583.13
2023-05-05T22:58:10.321Z,101579.78
2023-05-05T23:00:37.081Z,101578.31
2023-05-05T23:03:04.198Z,101579.53
2023-05-05T23:05:31.254Z,101579.53
2023-05-05T23:07:59.999Z,101577.47
2023-05-05T23:10:28.974Z,101581.97
2023-05-05T23:12:56.470Z,101575.63
2023-05-05T23:15:23.832Z,101577.66
2023-05-05T23:17:50.756Z,101572.69
2023-05-05T23:20:17.554Z,101574.88
2023-05-05T23:22:47.268Z,101569.75
2023-05-05T23:25:14.055Z,101567.25
2023-05-05T23:27:42.250Z,101580.78
2023-05-05T23:30:09.724Z,101565.78
2023-05-05T23:32:36.663Z,101573.94
2023-05-05T23:35:03.732Z,101575.44
2023-05-05T23:37:30.517Z,101566.59
2023-05-05T23:39:57.287Z,101570.28
2023-05-05T23:42:24.439Z,101572.94
2023-05-05T23:44:55.800Z,101558.59
2023-05-05T23:47:22.548Z,101558.16
2023-05-05T23:49:49.650Z,101559.31
2023-05-05T23:52:16.524Z,101556.84
2023-05-05T23:54:44.813Z,101557.00
2023-05-05T23:57:11.502Z,101565.22
2023-05-05T23:59:39.187Z,101559.88
